createdAt,value
2022-12-31T00:01:50.180Z,9.80
2022-12-31T00:04:17.041Z,9.80
2022-12-31T00:06:43.885Z,9.80
2022-12-31T00:09:10.894Z,9.80
2022-12-31T00:11:38.453Z,9.90
2022-12-31T00:14:05.489Z,9.90
2022-12-31T00:16:36.554Z,9.90
2022-12-31T00:19:04.998Z,9.90
2022-12-31T00:21:33.501Z,10.00
2022-12-31T00:24:01.522Z,10.00
2022-12-31T00:26:30.872Z,9.90
2022-12-31T00:28:59.801Z,10.00
2022-12-31T00:31:32.296Z,10.00
2022-12-31T00:34:00.224Z,9.90
2022-12-31T00:36:32.592Z,9.90
2022-12-31T00:39:01.296Z,9.90
2022-12-31T00:41:29.021Z,9.90
2022-12-31T00:43:55.863Z,9.80
2022-12-31T00:46:23.358Z,9.80
2022-12-31T00:48:50.069Z,9.80
2022-12-31T00:51:19.382Z,9.80
2022-12-31T00:53:46.189Z,9.90
2022-12-31T00:56:22.112Z,9.70
2022-12-31T00:58:49.885Z,9.70
2022-12-31T01:01:19.384Z,9.70
2022-12-31T01:03:47.696Z,9.70
2022-12-31T01:06:15.131Z,9.80
2022-12-31T01:08:41.793Z,9.80
2022-12-31T01:11:20.522Z,9.80
2022-12-31T01:13:58.252Z,9.90
2022-12-31T01:16:38.952Z,10.00
2022-12-31T01:19:10.139Z,10.10
2022-12-31T01:21:38.540Z,10.00
2022-12-31T01:24:05.689Z,10.00
2022-12-31T01:26:32.767Z,10.00
2022-12-31T01:28:59.578Z,9.90
2022-12-31T01:31:27.080Z,9.90
2022-12-31T01:33:54.523Z,9.90
2022-12-31T01:36:26.261Z,9.90
2022-12-31T01:38:54.922Z,9.90
2022-12-31T01:41:28.398Z,10.10
2022-12-31T01:44:16.803Z,10.10
2022-12-31T01:46:53.542Z,10.10
2022-12-31T01:49:30.942Z,10.20
2022-12-31T01:52:08.677Z,10.10
2022-12-31T01:54:40.760Z,10.20
2022-12-31T01:57:09.084Z,10.20
2022-12-31T01:59:36.366Z,10.10
2022-12-31T02:02:04.374Z,10.10
2022-12-31T02:04:31.681Z,10.00
2022-12-31T02:07:04.928Z,10.10
2022-12-31T02:09:32.570Z,10.10
2022-12-31T02:12:00.110Z,10.10
2022-12-31T02:14:34.016Z,10.00
2022-12-31T02:17:15.978Z,9.90
2022-12-31T02:20:03.671Z,9.90
2022-12-31T02:22:45.454Z,9.80
2022-12-31T02:25:49.217Z,9.80
2022-12-31T02:28:54.938Z,9.80
2022-12-31T02:31:30.836Z,9.80
2022-12-31T02:34:02.487Z,9.90
2022-12-31T02:36:34.655Z,10.00
2022-12-31T02:39:04.202Z,10.00
2022-12-31T02:41:49.872Z,10.00
2022-12-31T02:44:28.953Z,10.00
2022-12-31T02:46:58.990Z,10.10
2022-12-31T02:49:58.343Z,10.00
2022-12-31T02:52:45.364Z,10.00
2022-12-31T02:55:21.117Z,10.00
2022-12-31T02:58:13.885Z,10.00
2022-12-31T03:01:09.718Z,10.00
2022-12-31T03:03:37.946Z,9.90
2022-12-31T03:06:06.215Z,9.60
2022-12-31T03:08:52.931Z,9.70
2022-12-31T03:11:39.569Z,9.60
2022-12-31T03:14:06.487Z,9.50
2022-12-31T03:16:34.881Z,9.20
2022-12-31T03:19:20.386Z,9.10
2022-12-31T03:22:05.970Z,9.10
2022-12-31T03:24:51.341Z,9.00
2022-12-31T03:27:18.025Z,8.90
2022-12-31T03:29:44.770Z,8.90
2022-12-31T03:32:11.600Z,8.90
2022-12-31T03:34:38.301Z,8.80
2022-12-31T03:37:04.997Z,8.70
2022-12-31T03:39:31.809Z,8.60
2022-12-31T03:41:58.521Z,8.60
2022-12-31T03:44:25.251Z,8.60
2022-12-31T03:46:52.221Z,8.70
2022-12-31T03:49:18.971Z,8.70
2022-12-31T03:51:45.626Z,8.80
2022-12-31T03:54:12.442Z,8.80
2022-12-31T03:56:39.248Z,8.90
2022-12-31T03:59:05.929Z,8.80
2022-12-31T04:01:32.893Z,8.80
2022-12-31T04:03:59.791Z,8.80
2022-12-31T04:06:27.231Z,9.00
2022-12-31T04:08:53.995Z,9.10
2022-12-31T04:11:21.266Z,9.20
2022-12-31T04:13:48.074Z,9.40
2022-12-31T04:16:15.077Z,9.40
2022-12-31T04:18:41.857Z,9.40
2022-12-31T04:21:08.677Z,9.50
2022-12-31T04:23:35.491Z,9.60
2022-12-31T04:26:02.175Z,9.60
2022-12-31T04:28:28.840Z,9.60
2022-12-31T04:30:55.577Z,9.70
2022-12-31T04:33:24.954Z,9.60
2022-12-31T04:35:51.644Z,9.60
2022-12-31T04:38:18.421Z,9.60
2022-12-31T04:41:04.113Z,9.50
2022-12-31T04:43:30.893Z,9.60
2022-12-31T04:45:57.768Z,9.60
2022-12-31T04:48:24.593Z,9.70
2022-12-31T04:50:51.539Z,9.70
2022-12-31T04:53:18.225Z,9.60
2022-12-31T04:55:46.047Z,9.60
2022-12-31T04:58:12.900Z,9.60
2022-12-31T05:00:39.625Z,9.60
2022-12-31T05:03:06.478Z,9.60
2022-12-31T05:05:33.281Z,9.60
2022-12-31T05:07:59.949Z,9.50
2022-12-31T05:10:26.817Z,9.40
2022-12-31T05:12:53.616Z,9.50
2022-12-31T05:15:20.381Z,9.50
2022-12-31T05:17:47.101Z,9.60
2022-12-31T05:20:13.841Z,9.60
2022-12-31T05:22:40.596Z,9.50
2022-12-31T05:25:07.848Z,9.50
2022-12-31T05:27:35.174Z,9.40
2022-12-31T05:30:01.953Z,9.20
2022-12-31T05:32:28.651Z,9.30
2022-12-31T05:34:55.827Z,9.20
2022-12-31T05:37:22.757Z,9.10
2022-12-31T05:39:49.554Z,8.90
2022-12-31T05:42:16.263Z,8.70
2022-12-31T05:44:43.102Z,8.70
2022-12-31T05:47:09.976Z,8.60
2022-12-31T05:49:36.797Z,8.40
2022-12-31T05:52:03.629Z,8.40
2022-12-31T05:54:30.406Z,8.40
2022-12-31T05:56:57.281Z,8.40
2022-12-31T05:59:24.188Z,8.50
2022-12-31T06:01:51.081Z,8.60
2022-12-31T06:04:18.762Z,8.60
2022-12-31T06:06:45.429Z,8.60
2022-12-31T06:09:12.319Z,8.60
2022-12-31T06:11:39.306Z,8.50
2022-12-31T06:14:06.100Z,8.50
2022-12-31T06:16:32.845Z,8.70
2022-12-31T06:18:59.614Z,8.80
2022-12-31T06:21:26.308Z,8.80
2022-12-31T06:23:53.060Z,8.60
2022-12-31T06:26:19.983Z,8.40
2022-12-31T06:28:46.771Z,8.40
2022-12-31T06:31:15.163Z,8.40
2022-12-31T06:33:42.547Z,8.50
2022-12-31T06:36:13.280Z,8.70
2022-12-31T06:38:41.417Z,8.60
2022-12-31T06:41:10.640Z,8.70
2022-12-31T06:43:38.704Z,8.50
2022-12-31T06:46:07.751Z,8.50
2022-12-31T06:48:35.010Z,8.50
2022-12-31T06:51:16.596Z,8.50
2022-12-31T06:53:45.157Z,8.70
2022-12-31T06:56:26.490Z,8.70
2022-12-31T06:58:56.889Z,8.90
2022-12-31T07:01:41.617Z,9.00
2022-12-31T07:04:36.389Z,9.10
2022-12-31T07:07:11.895Z,9.10
2022-12-31T07:09:48.954Z,9.10
2022-12-31T07:12:24.975Z,9.10
2022-12-31T07:15:20.199Z,9.10
2022-12-31T07:17:56.854Z,9.20
2022-12-31T07:20:23.979Z,9.10
2022-12-31T07:22:51.007Z,9.20
2022-12-31T07:25:18.968Z,9.20
2022-12-31T07:28:22.506Z,9.30
2022-12-31T07:31:06.800Z,9.30
2022-12-31T07:34:01.890Z,9.30
2022-12-31T07:36:55.976Z,9.30
2022-12-31T07:39:38.400Z,9.10
2022-12-31T07:42:11.204Z,9.10
2022-12-31T07:44:42.392Z,9.00
2022-12-31T07:47:22.868Z,9.20
2022-12-31T07:49:50.303Z,9.30
2022-12-31T07:52:17.939Z,9.40
2022-12-31T07:54:44.684Z,9.40
2022-12-31T07:57:13.828Z,9.30
2022-12-31T08:00:01.671Z,9.30
2022-12-31T08:03:01.944Z,9.10
2022-12-31T08:05:48.514Z,9.00
2022-12-31T08:08:36.350Z,8.90
2022-12-31T08:11:15.020Z,8.70
2022-12-31T08:13:43.349Z,8.60
2022-12-31T08:16:12.371Z,8.50
2022-12-31T08:18:39.915Z,8.50
2022-12-31T08:21:35.039Z,8.50
2022-12-31T08:24:23.246Z,8.60
2022-12-31T08:27:28.314Z,8.70
2022-12-31T08:30:00.650Z,8.80
2022-12-31T08:32:53.139Z,8.90
2022-12-31T08:35:54.809Z,8.80
2022-12-31T08:38:47.749Z,8.90
2022-12-31T08:41:20.400Z,8.90
2022-12-31T08:44:15.337Z,8.90
2022-12-31T08:47:19.641Z,9.10
2022-12-31T08:49:46.847Z,9.10
2022-12-31T08:52:20.033Z,9.00
2022-12-31T08:54:46.976Z,9.00
2022-12-31T08:57:33.862Z,9.10
2022-12-31T09:00:12.125Z,9.20
2022-12-31T09:02:53.745Z,9.20
2022-12-31T09:05:45.782Z,9.40
2022-12-31T09:08:33.352Z,9.40
2022-12-31T09:11:03.157Z,9.40
2022-12-31T09:13:52.926Z,9.60
2022-12-31T09:16:30.405Z,9.70
2022-12-31T09:18:57.149Z,9.90
2022-12-31T09:21:24.454Z,10.00
2022-12-31T09:23:51.343Z,10.00
2022-12-31T09:26:30.192Z,10.10
2022-12-31T09:29:22.242Z,10.10
2022-12-31T09:32:20.155Z,10.30
2022-12-31T09:35:07.318Z,10.20
2022-12-31T09:37:48.586Z,10.20
2022-12-31T09:40:39.767Z,9.90
2022-12-31T09:43:28.101Z,9.80
2022-12-31T09:46:09.941Z,9.80
2022-12-31T09:49:10.689Z,9.80
2022-12-31T09:52:02.031Z,9.70
2022-12-31T09:54:40.234Z,9.70
2022-12-31T09:57:45.903Z,9.60
2022-12-31T10:00:16.065Z,9.70
2022-12-31T10:03:07.356Z,9.80
2022-12-31T10:05:59.535Z,9.90
2022-12-31T10:08:40.678Z,9.90
2022-12-31T10:11:32.171Z,10.10
2022-12-31T10:14:19.176Z,10.30
2022-12-31T10:17:01.208Z,10.40
2022-12-31T10:19:46.149Z,10.30
2022-12-31T10:22:15.875Z,10.10
2022-12-31T10:24:45.569Z,10.00
2022-12-31T10:27:34.140Z,9.90
2022-12-31T10:30:17.546Z,9.80
2022-12-31T10:33:00.322Z,9.80
2022-12-31T10:35:57.128Z,9.90
2022-12-31T10:38:51.199Z,9.80
2022-12-31T10:41:55.768Z,9.80
2022-12-31T10:44:40.939Z,9.70
2022-12-31T10:47:18.742Z,9.70
2022-12-31T10:49:48.815Z,9.80
2022-12-31T10:52:53.248Z,9.70
2022-12-31T10:55:52.419Z,9.80
2022-12-31T10:58:45.464Z,9.70
2022-12-31T11:01:30.574Z,9.80
2022-12-31T11:04:34.893Z,10.00
2022-12-31T11:07:16.924Z,10.00
2022-12-31T11:10:09.029Z,10.00
2022-12-31T11:12:56.794Z,10.10
2022-12-31T11:15:53.791Z,10.00
2022-12-31T11:18:35.381Z,10.20
2022-12-31T11:21:13.705Z,10.50
2022-12-31T11:23:55.355Z,10.60
2022-12-31T11:26:34.864Z,10.80
2022-12-31T11:29:13.565Z,10.90
2022-12-31T11:32:06.350Z,10.90
2022-12-31T11:34:51.028Z,11.00
2022-12-31T11:37:39.572Z,11.10
2022-12-31T11:40:12.186Z,11.10
2022-12-31T11:42:52.084Z,11.10
2022-12-31T11:45:45.650Z,11.10
2022-12-31T11:48:39.340Z,11.20
2022-12-31T11:51:14.901Z,11.20
2022-12-31T11:53:57.506Z,11.20
2022-12-31T11:56:28.355Z,11.20
2022-12-31T11:58:56.473Z,11.30
2022-12-31T12:01:36.273Z,11.30
2022-12-31T12:04:03.582Z,11.30
2022-12-31T12:06:33.622Z,11.40
2022-12-31T12:09:05.717Z,11.40
2022-12-31T12:11:37.360Z,11.50
2022-12-31T12:14:32.265Z,11.40
2022-12-31T12:17:04.640Z,11.40
2022-12-31T12:19:34.037Z,11.50
2022-12-31T12:22:14.259Z,11.60
2022-12-31T12:24:51.701Z,11.60
2022-12-31T12:27:24.609Z,11.70
2022-12-31T12:29:51.419Z,11.70
2022-12-31T12:32:22.352Z,11.70
2022-12-31T12:34:50.119Z,11.70
2022-12-31T12:37:34.388Z,11.70
2022-12-31T12:40:04.308Z,11.70
2022-12-31T12:42:31.891Z,11.70
2022-12-31T12:45:23.345Z,11.70
2022-12-31T12:48:02.134Z,11.60
2022-12-31T12:50:41.567Z,11.40
2022-12-31T12:53:14.239Z,11.30
2022-12-31T12:55:47.534Z,11.30
2022-12-31T12:58:26.001Z,11.30
2022-12-31T13:01:23.835Z,11.40
2022-12-31T13:04:32.350Z,11.50
2022-12-31T13:07:40.711Z,11.40
2022-12-31T13:10:13.289Z,11.30
2022-12-31T13:13:23.314Z,11.40
2022-12-31T13:15:56.682Z,11.40
2022-12-31T13:18:50.107Z,11.30
2022-12-31T13:21:45.527Z,11.30
2022-12-31T13:24:30.661Z,11.30
2022-12-31T13:27:06.398Z,11.50
2022-12-31T13:29:35.846Z,11.60
2022-12-31T13:32:05.710Z,11.60
2022-12-31T13:34:38.550Z,11.70
2022-12-31T13:37:24.476Z,11.70
2022-12-31T13:40:07.614Z,11.70
2022-12-31T13:42:48.171Z,11.80
2022-12-31T13:45:24.483Z,11.80
2022-12-31T13:48:18.772Z,11.80
2022-12-31T13:50:57.639Z,11.80
2022-12-31T13:53:57.262Z,11.70
2022-12-31T13:56:29.304Z,11.70
2022-12-31T13:59:19.154Z,11.70
2022-12-31T14:02:10.015Z,11.70
2022-12-31T14:04:42.046Z,11.70
2022-12-31T14:07:18.193Z,11.70
2022-12-31T14:09:46.450Z,11.70
2022-12-31T14:12:33.171Z,11.70
2022-12-31T14:15:22.878Z,11.80
2022-12-31T14:18:25.737Z,11.60
2022-12-31T14:21:00.257Z,11.60
2022-12-31T14:23:36.060Z,11.60
2022-12-31T14:26:11.220Z,11.70
2022-12-31T14:28:49.395Z,11.60
2022-12-31T14:31:34.281Z,11.70
2022-12-31T14:34:12.932Z,11.70
2022-12-31T14:36:51.812Z,11.70
2022-12-31T14:39:42.913Z,11.70
2022-12-31T14:42:40.019Z,11.60
2022-12-31T14:45:35.664Z,11.60
2022-12-31T14:48:22.281Z,11.60
2022-12-31T14:50:49.510Z,11.60
2022-12-31T14:53:27.055Z,11.60
2022-12-31T14:56:04.062Z,11.60
2022-12-31T14:58:38.752Z,11.70
2022-12-31T15:01:26.475Z,11.30
2022-12-31T15:03:58.172Z,11.10
2022-12-31T15:06:43.533Z,10.90
2022-12-31T15:09:20.451Z,10.80
2022-12-31T15:12:19.902Z,10.60
2022-12-31T15:14:49.374Z,10.50
2022-12-31T15:17:42.537Z,10.70
2022-12-31T15:20:26.775Z,10.70
2022-12-31T15:22:54.715Z,10.70
2022-12-31T15:25:27.013Z,10.70
2022-12-31T15:27:54.468Z,10.50
2022-12-31T15:30:48.689Z,10.50
2022-12-31T15:33:32.291Z,10.60
2022-12-31T15:36:21.604Z,10.80
2022-12-31T15:38:49.724Z,10.90
2022-12-31T15:41:19.234Z,11.10
2022-12-31T15:44:01.102Z,11.00
2022-12-31T15:46:36.986Z,10.70
2022-12-31T15:49:15.583Z,10.40
2022-12-31T15:51:45.083Z,10.50
2022-12-31T15:54:37.060Z,10.30
2022-12-31T15:57:09.220Z,10.20
2022-12-31T15:59:38.195Z,10.10
2022-12-31T16:02:17.721Z,9.90
2022-12-31T16:04:44.855Z,9.80
2022-12-31T16:07:12.501Z,9.70
2022-12-31T16:09:40.189Z,9.70
2022-12-31T16:12:19.088Z,9.60
2022-12-31T16:14:51.654Z,9.60
2022-12-31T16:17:36.041Z,9.70
2022-12-31T16:20:24.493Z,9.60
2022-12-31T16:22:57.665Z,9.60
2022-12-31T16:25:33.744Z,9.60
2022-12-31T16:28:03.821Z,9.60
2022-12-31T16:30:32.278Z,9.50
2022-12-31T16:33:07.436Z,9.60
2022-12-31T16:35:37.520Z,9.60
2022-12-31T16:38:11.332Z,9.40
2022-12-31T16:40:38.867Z,9.50
2022-12-31T16:43:24.125Z,9.40
2022-12-31T16:45:51.121Z,9.40
2022-12-31T16:48:19.655Z,9.30
2022-12-31T16:50:49.366Z,9.40
2022-12-31T16:53:20.924Z,9.40
2022-12-31T16:55:54.816Z,9.70
2022-12-31T16:58:31.540Z,9.70
2022-12-31T17:01:06.878Z,9.70
2022-12-31T17:03:34.808Z,9.70
2022-12-31T17:06:07.893Z,9.80
2022-12-31T17:08:54.786Z,9.70
2022-12-31T17:11:30.773Z,9.50
2022-12-31T17:14:22.975Z,9.50
2022-12-31T17:17:03.071Z,9.40
2022-12-31T17:19:39.284Z,9.50
2022-12-31T17:22:13.272Z,9.40
2022-12-31T17:24:40.377Z,9.30
2022-12-31T17:27:08.811Z,9.30
2022-12-31T17:29:35.925Z,9.30
2022-12-31T17:32:25.838Z,9.30
2022-12-31T17:34:52.671Z,9.30
2022-12-31T17:37:26.667Z,9.30
2022-12-31T17:40:17.052Z,9.30
2022-12-31T17:42:46.422Z,9.30
2022-12-31T17:45:20.578Z,9.30
2022-12-31T17:47:50.983Z,9.30
2022-12-31T17:50:24.367Z,9.30
2022-12-31T17:52:55.731Z,9.20
2022-12-31T17:55:22.809Z,9.10
2022-12-31T17:57:53.294Z,9.20
2022-12-31T18:00:23.892Z,9.10
2022-12-31T18:02:50.913Z,9.20
2022-12-31T18:05:20.815Z,9.20
2022-12-31T18:07:47.915Z,9.20
2022-12-31T18:10:16.510Z,9.30
2022-12-31T18:12:44.759Z,9.30
2022-12-31T18:15:19.442Z,9.30
2022-12-31T18:17:46.194Z,9.30
2022-12-31T18:20:13.515Z,9.40
2022-12-31T18:22:42.070Z,9.40
2022-12-31T18:25:19.974Z,9.50
2022-12-31T18:27:46.781Z,9.50
2022-12-31T18:30:16.521Z,9.70
2022-12-31T18:32:44.887Z,9.80
2022-12-31T18:35:40.614Z,9.70
2022-12-31T18:38:11.317Z,9.70
2022-12-31T18:40:42.533Z,9.90
2022-12-31T18:43:16.276Z,9.90
2022-12-31T18:45:43.446Z,10.00
2022-12-31T18:48:10.228Z,10.00
2022-12-31T18:50:37.479Z,10.10
2022-12-31T18:53:04.238Z,10.10
2022-12-31T18:55:40.216Z,10.20
2022-12-31T18:58:07.920Z,10.20
2022-12-31T19:00:35.670Z,10.10
2022-12-31T19:03:03.009Z,10.10
2022-12-31T19:05:32.409Z,10.00
2022-12-31T19:07:59.850Z,9.80
2022-12-31T19:10:27.888Z,9.60
2022-12-31T19:12:54.833Z,9.40
2022-12-31T19:15:29.919Z,9.30
2022-12-31T19:17:57.299Z,9.30
2022-12-31T19:20:24.205Z,9.20
2022-12-31T19:22:51.133Z,9.10
2022-12-31T19:25:24.602Z,9.10
2022-12-31T19:27:52.009Z,9.10
2022-12-31T19:30:27.430Z,9.00
2022-12-31T19:32:54.190Z,9.10
2022-12-31T19:35:21.962Z,9.00
2022-12-31T19:37:51.388Z,9.00
2022-12-31T19:40:22.516Z,9.00
2022-12-31T19:42:50.521Z,9.10
2022-12-31T19:45:26.785Z,9.10
2022-12-31T19:47:54.831Z,9.20
2022-12-31T19:50:24.450Z,9.10
2022-12-31T19:52:53.476Z,9.10
2022-12-31T19:55:22.479Z,9.10
2022-12-31T19:57:50.158Z,9.10
2022-12-31T20:00:18.519Z,9.20
2022-12-31T20:02:47.409Z,9.20
2022-12-31T20:05:16.393Z,9.20
2022-12-31T20:07:43.396Z,9.20
2022-12-31T20:10:10.944Z,9.30
2022-12-31T20:12:43.955Z,9.30
2022-12-31T20:15:11.371Z,9.30
2022-12-31T20:17:38.131Z,9.30
2022-12-31T20:20:06.870Z,9.20
2022-12-31T20:22:33.905Z,9.20
2022-12-31T20:25:00.700Z,9.20
2022-12-31T20:27:27.897Z,9.20
2022-12-31T20:29:54.629Z,9.10
2022-12-31T20:32:21.543Z,9.10
2022-12-31T20:34:48.443Z,9.10
2022-12-31T20:37:15.440Z,9.20
2022-12-31T20:39:42.836Z,9.20
2022-12-31T20:42:09.689Z,9.10
2022-12-31T20:44:36.508Z,9.10
2022-12-31T20:47:03.319Z,9.10
2022-12-31T20:49:52.551Z,9.20
2022-12-31T20:52:17.047Z,9.20
2022-12-31T20:54:43.699Z,9.00
2022-12-31T20:57:10.355Z,8.90
2022-12-31T20:59:37.119Z,8.90
2022-12-31T21:04:51.072Z,9.10
2022-12-31T21:07:17.958Z,9.20
2022-12-31T21:09:44.612Z,9.10
2022-12-31T21:12:30.685Z,9.10
2022-12-31T21:14:57.520Z,9.00
2022-12-31T21:17:24.308Z,9.00
2022-12-31T21:19:51.463Z,9.10
2022-12-31T21:22:18.171Z,9.20
2022-12-31T21:24:44.840Z,9.20
2022-12-31T21:27:12.034Z,9.20
2022-12-31T21:29:55.751Z,9.20
2022-12-31T21:32:25.530Z,9.40
2022-12-31T21:35:14.959Z,9.40
2022-12-31T21:37:58.032Z,9.60
2022-12-31T21:40:25.781Z,9.60
2022-12-31T21:42:52.569Z,9.70
2022-12-31T21:45:19.211Z,9.70
2022-12-31T21:48:04.768Z,9.70
2022-12-31T21:50:32.293Z,9.60
2022-12-31T21:52:58.994Z,9.70
2022-12-31T21:55:44.182Z,9.80
2022-12-31T21:58:27.729Z,9.80
2022-12-31T22:01:15.137Z,9.90
2022-12-31T22:03:43.166Z,9.80
2022-12-31T22:06:20.423Z,9.80
2022-12-31T22:08:49.702Z,9.70
2022-12-31T22:11:17.873Z,9.80
2022-12-31T22:13:45.353Z,9.80
2022-12-31T22:16:13.174Z,9.90
2022-12-31T22:18:42.738Z,9.90
2022-12-31T22:21:18.192Z,9.80
2022-12-31T22:23:50.431Z,9.80
2022-12-31T22:26:18.872Z,9.80
2022-12-31T22:28:46.440Z,9.90
2022-12-31T22:31:18.572Z,9.90
2022-12-31T22:33:46.252Z,9.90
2022-12-31T22:36:15.629Z,9.90
2022-12-31T22:38:42.804Z,10.00
2022-12-31T22:41:12.126Z,9.90
2022-12-31T22:43:42.539Z,9.80
2022-12-31T22:46:19.449Z,9.90
2022-12-31T22:48:46.316Z,9.90
2022-12-31T22:51:14.388Z,9.80
2022-12-31T22:53:43.263Z,9.70
2022-12-31T22:56:12.228Z,9.80
2022-12-31T22:58:39.457Z,9.80
2022-12-31T23:01:09.033Z,9.90
2022-12-31T23:03:35.893Z,10.00
2022-12-31T23:06:02.686Z,10.00
2022-12-31T23:08:29.454Z,10.00
2022-12-31T23:11:02.740Z,10.00
2022-12-31T23:13:51.417Z,10.10
2022-12-31T23:16:38.106Z,10.00
2022-12-31T23:19:24.294Z,10.00
2022-12-31T23:22:09.756Z,10.00
2022-12-31T23:24:36.798Z,9.90
2022-12-31T23:27:03.665Z,9.70
2022-12-31T23:29:30.495Z,9.80
2022-12-31T23:31:57.469Z,9.80
2022-12-31T23:34:24.200Z,9.90
2022-12-31T23:36:50.939Z,9.90
2022-12-31T23:39:17.722Z,10.00
2022-12-31T23:41:44.457Z,10.00
2022-12-31T23:44:14.376Z,10.00
2022-12-31T23:46:42.359Z,10.10
2022-12-31T23:49:09.149Z,10.10
2022-12-31T23:51:36.667Z,10.00
2022-12-31T23:54:04.383Z,10.10
2022-12-31T23:56:31.238Z,10.10
2022-12-31T23:58:59.238Z,10.10
